sensor_id;sensor_type;location;lat;lon;timestamp;temperature;humidity
23703;DHT22;12030;50.376;8.762;2022-10-26T00:01:26;9.30;99.90
23703;DHT22;12030;50.376;8.762;2022-10-26T00:03:54;9.40;99.90
23703;DHT22;12030;50.376;8.762;2022-10-26T00:06:22;9.40;99.90
23703;DHT22;12030;50.376;8.762;2022-10-26T00:08:49;9.40;99.90
23703;DHT22;12030;50.376;8.762;2022-10-26T00:11:16;9.50;99.90
23703;DHT22;12030;50.376;8.762;2022-10-26T00:13:42;9.60;99.90
23703;DHT22;12030;50.376;8.762;2022-10-26T00:16:20;9.60;99.90
23703;DHT22;12030;50.376;8.762;2022-10-26T00:18:47;9.60;99.90
23703;DHT22;12030;50.376;8.762;2022-10-26T00:21:13;9.70;99.90
23703;DHT22;12030;50.376;8.762;2022-10-26T00:23:38;9.70;99.90
23703;DHT22;12030;50.376;8.762;2022-10-26T00:26:04;9.70;99.90
23703;DHT22;12030;50.376;8.762;2022-10-26T00:28:30;9.80;99.90
23703;DHT22;12030;50.376;8.762;2022-10-26T00:31:00;9.80;99.90
23703;DHT22;12030;50.376;8.762;2022-10-26T00:33:26;9.80;99.90
23703;DHT22;12030;50.376;8.762;2022-10-26T00:35:54;9.80;99.90
23703;DHT22;12030;50.376;8.762;2022-10-26T00:38:20;9.80;99.90
23703;DHT22;12030;50.376;8.762;2022-10-26T00:40:45;9.80;99.90
23703;DHT22;12030;50.376;8.762;2022-10-26T00:45:48;9.90;99.90
23703;DHT22;12030;50.376;8.762;2022-10-26T00:48:23;9.90;99.90
23703;DHT22;12030;50.376;8.762;2022-10-26T00:50:50;9.90;99.90
23703;DHT22;12030;50.376;8.762;2022-10-26T00:53:17;9.90;99.90
23703;DHT22;12030;50.376;8.762;2022-10-26T00:55:48;10.00;99.90
23703;DHT22;12030;50.376;8.762;2022-10-26T00:58:14;10.00;99.90
23703;DHT22;12030;50.376;8.762;2022-10-26T01:00:41;10.00;99.90
23703;DHT22;12030;50.376;8.762;2022-10-26T01:03:09;10.00;99.90
23703;DHT22;12030;50.376;8.762;2022-10-26T01:05:40;10.00;99.90
23703;DHT22;12030;50.376;8.762;2022-10-26T01:08:07;10.00;99.90
23703;DHT22;12030;50.376;8.762;2022-10-26T01:10:35;10.10;99.90
23703;DHT22;12030;50.376;8.762;2022-10-26T01:13:02;10.10;99.90
23703;DHT22;12030;50.376;8.762;2022-10-26T01:15:43;10.10;99.90
23703;DHT22;12030;50.376;8.762;2022-10-26T01:18:28;10.20;99.90
23703;DHT22;12030;50.376;8.762;2022-10-26T01:24:03;10.20;99.90
23703;DHT22;12030;50.376;8.762;2022-10-26T01:26:56;10.10;99.90
23703;DHT22;12030;50.376;8.762;2022-10-26T01:32:00;10.20;99.90
23703;DHT22;12030;50.376;8.762;2022-10-26T01:34:34;10.30;99.90
23703;DHT22;12030;50.376;8.762;2022-10-26T01:37:14;10.30;99.90
23703;DHT22;12030;50.376;8.762;2022-10-26T01:39:49;10.30;99.90
23703;DHT22;12030;50.376;8.762;2022-10-26T01:42:17;10.40;99.90
23703;DHT22;12030;50.376;8.762;2022-10-26T01:44:59;10.50;99.90
23703;DHT22;12030;50.376;8.762;2022-10-26T01:47:26;10.50;99.90
23703;DHT22;12030;50.376;8.762;2022-10-26T01:49:56;10.60;99.90
23703;DHT22;12030;50.376;8.762;2022-10-26T01:52:23;10.60;99.90
23703;DHT22;12030;50.376;8.762;2022-10-26T01:54:49;10.60;99.90
23703;DHT22;12030;50.376;8.762;2022-10-26T01:57:18;10.60;99.90
23703;DHT22;12030;50.376;8.762;2022-10-26T02:00:02;10.60;99.90
23703;DHT22;12030;50.376;8.762;2022-10-26T02:02:47;10.60;99.90
23703;DHT22;12030;50.376;8.762;2022-10-26T02:05:22;10.60;99.90
23703;DHT22;12030;50.376;8.762;2022-10-26T02:16:19;10.80;99.90
23703;DHT22;12030;50.376;8.762;2022-10-26T02:19:02;10.80;99.90
23703;DHT22;12030;50.376;8.762;2022-10-26T02:21:37;10.80;99.90
23703;DHT22;12030;50.376;8.762;2022-10-26T02:26:32;10.70;99.90
23703;DHT22;12030;50.376;8.762;2022-10-26T02:29:02;10.80;99.90
23703;DHT22;12030;50.376;8.762;2022-10-26T02:31:29;10.80;99.90
23703;DHT22;12030;50.376;8.762;2022-10-26T02:33:57;10.80;99.90
23703;DHT22;12030;50.376;8.762;2022-10-26T02:36:30;10.80;99.90
23703;DHT22;12030;50.376;8.762;2022-10-26T02:38:58;10.80;99.90
23703;DHT22;12030;50.376;8.762;2022-10-26T02:41:25;10.80;99.90
23703;DHT22;12030;50.376;8.762;2022-10-26T02:43:58;10.80;99.90
23703;DHT22;12030;50.376;8.762;2022-10-26T02:46:25;10.80;99.90
23703;DHT22;12030;50.376;8.762;2022-10-26T02:48:53;10.80;99.90
23703;DHT22;12030;50.376;8.762;2022-10-26T02:51:39;10.70;99.90
23703;DHT22;12030;50.376;8.762;2022-10-26T02:57:28;10.70;99.90
23703;DHT22;12030;50.376;8.762;2022-10-26T02:59:55;10.80;99.90
23703;DHT22;12030;50.376;8.762;2022-10-26T03:02:22;10.80;99.90
23703;DHT22;12030;50.376;8.762;2022-10-26T03:04:49;10.80;99.90
23703;DHT22;12030;50.376;8.762;2022-10-26T03:07:24;10.90;99.90
23703;DHT22;12030;50.376;8.762;2022-10-26T03:09:50;10.90;99.90
23703;DHT22;12030;50.376;8.762;2022-10-26T03:12:15;11.00;99.90
23703;DHT22;12030;50.376;8.762;2022-10-26T03:14:41;11.00;99.90
23703;DHT22;12030;50.376;8.762;2022-10-26T03:17:07;11.10;99.90
23703;DHT22;12030;50.376;8.762;2022-10-26T03:19:32;11.10;99.90
23703;DHT22;12030;50.376;8.762;2022-10-26T03:21:58;11.10;99.90
23703;DHT22;12030;50.376;8.762;2022-10-26T03:24:23;11.10;99.90
23703;DHT22;12030;50.376;8.762;2022-10-26T03:26:49;11.10;99.90
23703;DHT22;12030;50.376;8.762;2022-10-26T03:29:14;11.10;99.90
23703;DHT22;12030;50.376;8.762;2022-10-26T03:31:40;11.00;99.90
23703;DHT22;12030;50.376;8.762;2022-10-26T03:34:06;11.00;99.90
23703;DHT22;12030;50.376;8.762;2022-10-26T03:36:31;11.00;99.90
23703;DHT22;12030;50.376;8.762;2022-10-26T03:38:57;11.00;99.90
23703;DHT22;12030;50.376;8.762;2022-10-26T03:41:23;11.00;99.90
23703;DHT22;12030;50.376;8.762;2022-10-26T03:43:48;11.10;99.90
23703;DHT22;12030;50.376;8.762;2022-10-26T03:46:14;11.00;99.90
23703;DHT22;12030;50.376;8.762;2022-10-26T03:48:39;11.00;99.90
23703;DHT22;12030;50.376;8.762;2022-10-26T03:51:05;10.10;99.90
23703;DHT22;12030;50.376;8.762;2022-10-26T03:53:30;11.10;99.90
23703;DHT22;12030;50.376;8.762;2022-10-26T03:55:56;11.10;99.90
23703;DHT22;12030;50.376;8.762;2022-10-26T03:58:22;11.20;99.90
23703;DHT22;12030;50.376;8.762;2022-10-26T04:00:47;11.20;99.90
23703;DHT22;12030;50.376;8.762;2022-10-26T04:03:13;11.30;99.90
23703;DHT22;12030;50.376;8.762;2022-10-26T04:05:38;11.30;99.90
23703;DHT22;12030;50.376;8.762;2022-10-26T04:08:04;11.40;99.90
23703;DHT22;12030;50.376;8.762;2022-10-26T04:10:30;11.40;99.90
23703;DHT22;12030;50.376;8.762;2022-10-26T04:12:56;11.40;99.90
23703;DHT22;12030;50.376;8.762;2022-10-26T04:15:24;11.40;99.90
23703;DHT22;12030;50.376;8.762;2022-10-26T04:17:59;11.30;99.90
23703;DHT22;12030;50.376;8.762;2022-10-26T04:20:26;11.30;99.90
23703;DHT22;12030;50.376;8.762;2022-10-26T04:22:56;11.20;99.90
23703;DHT22;12030;50.376;8.762;2022-10-26T04:25:22;11.20;99.90
23703;DHT22;12030;50.376;8.762;2022-10-26T04:27:48;11.30;99.90
23703;DHT22;12030;50.376;8.762;2022-10-26T04:30:13;11.30;99.90
23703;DHT22;12030;50.376;8.762;2022-10-26T04:32:39;11.40;99.90
23703;DHT22;12030;50.376;8.762;2022-10-26T04:35:04;11.30;99.90
23703;DHT22;12030;50.376;8.762;2022-10-26T04:37:30;11.20;99.90
23703;DHT22;12030;50.376;8.762;2022-10-26T04:39:56;11.20;99.90
23703;DHT22;12030;50.376;8.762;2022-10-26T04:42:21;11.30;99.90
23703;DHT22;12030;50.376;8.762;2022-10-26T04:44:47;11.40;99.90
23703;DHT22;12030;50.376;8.762;2022-10-26T04:47:13;11.40;99.90
23703;DHT22;12030;50.376;8.762;2022-10-26T04:49:38;11.40;99.90
23703;DHT22;12030;50.376;8.762;2022-10-26T04:52:05;11.40;99.90
23703;DHT22;12030;50.376;8.762;2022-10-26T04:54:30;11.40;99.90
23703;DHT22;12030;50.376;8.762;2022-10-26T04:56:56;11.40;99.90
23703;DHT22;12030;50.376;8.762;2022-10-26T04:59:21;11.40;99.90
23703;DHT22;12030;50.376;8.762;2022-10-26T05:01:47;11.40;99.90
23703;DHT22;12030;50.376;8.762;2022-10-26T05:04:13;11.30;99.90
23703;DHT22;12030;50.376;8.762;2022-10-26T05:06:38;11.30;99.90
23703;DHT22;12030;50.376;8.762;2022-10-26T05:09:04;11.20;99.90
23703;DHT22;12030;50.376;8.762;2022-10-26T05:11:29;11.30;99.90
23703;DHT22;12030;50.376;8.762;2022-10-26T05:13:55;11.30;99.90
23703;DHT22;12030;50.376;8.762;2022-10-26T05:16:20;11.30;99.90
23703;DHT22;12030;50.376;8.762;2022-10-26T05:18:49;11.20;99.90
23703;DHT22;12030;50.376;8.762;2022-10-26T05:21:15;11.30;99.90
23703;DHT22;12030;50.376;8.762;2022-10-26T05:23:50;11.30;99.90
23703;DHT22;12030;50.376;8.762;2022-10-26T05:26:20;11.30;99.90
23703;DHT22;12030;50.376;8.762;2022-10-26T05:28:46;11.30;99.90
23703;DHT22;12030;50.376;8.762;2022-10-26T05:31:12;11.30;99.90
23703;DHT22;12030;50.376;8.762;2022-10-26T05:33:38;11.40;99.90
23703;DHT22;12030;50.376;8.762;2022-10-26T05:36:04;11.40;99.90
23703;DHT22;12030;50.376;8.762;2022-10-26T05:38:30;11.40;99.90
23703;DHT22;12030;50.376;8.762;2022-10-26T05:40:55;11.40;99.90
23703;DHT22;12030;50.376;8.762;2022-10-26T05:43:22;11.40;99.90
23703;DHT22;12030;50.376;8.762;2022-10-26T05:45:52;11.50;99.90
23703;DHT22;12030;50.376;8.762;2022-10-26T05:48:18;11.40;99.90
23703;DHT22;12030;50.376;8.762;2022-10-26T05:50:44;11.40;99.90
23703;DHT22;12030;50.376;8.762;2022-10-26T05:53:10;11.40;99.90
23703;DHT22;12030;50.376;8.762;2022-10-26T05:55:36;11.40;99.90
23703;DHT22;12030;50.376;8.762;2022-10-26T05:58:02;11.30;99.90
23703;DHT22;12030;50.376;8.762;2022-10-26T06:00:28;11.30;99.90
23703;DHT22;12030;50.376;8.762;2022-10-26T06:05:50;11.30;99.90
23703;DHT22;12030;50.376;8.762;2022-10-26T06:08:16;11.30;99.90
23703;DHT22;12030;50.376;8.762;2022-10-26T06:10:42;11.30;99.90
23703;DHT22;12030;50.376;8.762;2022-10-26T06:13:08;11.20;99.90
23703;DHT22;12030;50.376;8.762;2022-10-26T06:15:41;11.30;99.90
23703;DHT22;12030;50.376;8.762;2022-10-26T06:21:26;11.50;99.90
23703;DHT22;12030;50.376;8.762;2022-10-26T06:26:36;11.60;99.90
23703;DHT22;12030;50.376;8.762;2022-10-26T06:29:34;11.70;99.90
23703;DHT22;12030;50.376;8.762;2022-10-26T06:32:01;11.80;99.90
23703;DHT22;12030;50.376;8.762;2022-10-26T06:34:32;11.90;99.90
23703;DHT22;12030;50.376;8.762;2022-10-26T06:36:59;11.90;99.90
23703;DHT22;12030;50.376;8.762;2022-10-26T06:39:27;12.00;99.90
23703;DHT22;12030;50.376;8.762;2022-10-26T06:41:56;12.00;99.90
23703;DHT22;12030;50.376;8.762;2022-10-26T06:44:22;12.00;99.90
23703;DHT22;12030;50.376;8.762;2022-10-26T06:47:02;11.90;99.90
23703;DHT22;12030;50.376;8.762;2022-10-26T06:49:48;12.00;99.90
23703;DHT22;12030;50.376;8.762;2022-10-26T06:52:43;12.00;99.90
23703;DHT22;12030;50.376;8.762;2022-10-26T06:55:14;12.10;99.90
23703;DHT22;12030;50.376;8.762;2022-10-26T06:57:42;12.10;99.90
23703;DHT22;12030;50.376;8.762;2022-10-26T07:00:21;13.20;99.90
23703;DHT22;12030;50.376;8.762;2022-10-26T07:02:48;12.20;99.90
23703;DHT22;12030;50.376;8.762;2022-10-26T07:05:14;12.20;99.90
23703;DHT22;12030;50.376;8.762;2022-10-26T07:07:44;12.20;99.90
23703;DHT22;12030;50.376;8.762;2022-10-26T07:10:11;12.30;99.90
23703;DHT22;12030;50.376;8.762;2022-10-26T07:12:37;12.30;99.90
23703;DHT22;12030;50.376;8.762;2022-10-26T07:15:04;12.30;99.90
23703;DHT22;12030;50.376;8.762;2022-10-26T07:17:29;12.30;99.90
23703;DHT22;12030;50.376;8.762;2022-10-26T07:19:55;12.40;99.90
23703;DHT22;12030;50.376;8.762;2022-10-26T07:22:22;12.40;99.90
23703;DHT22;12030;50.376;8.762;2022-10-26T07:24:49;12.50;99.90
23703;DHT22;12030;50.376;8.762;2022-10-26T07:27:16;12.50;99.90
23703;DHT22;12030;50.376;8.762;2022-10-26T07:29:44;12.60;99.90
23703;DHT22;12030;50.376;8.762;2022-10-26T07:32:09;12.50;99.90
23703;DHT22;12030;50.376;8.762;2022-10-26T07:34:35;12.60;99.90
23703;DHT22;12030;50.376;8.762;2022-10-26T07:37:01;12.60;99.90
23703;DHT22;12030;50.376;8.762;2022-10-26T07:39:26;12.70;99.90
23703;DHT22;12030;50.376;8.762;2022-10-26T07:41:52;12.80;99.90
23703;DHT22;12030;50.376;8.762;2022-10-26T07:44:18;12.90;99.90
23703;DHT22;12030;50.376;8.762;2022-10-26T07:46:43;13.00;99.90
23703;DHT22;12030;50.376;8.762;2022-10-26T07:49:09;13.10;99.90
23703;DHT22;12030;50.376;8.762;2022-10-26T07:51:35;13.10;99.90
23703;DHT22;12030;50.376;8.762;2022-10-26T07:54:01;13.20;99.90
23703;DHT22;12030;50.376;8.762;2022-10-26T07:56:26;13.20;99.90
23703;DHT22;12030;50.376;8.762;2022-10-26T07:58:53;13.20;99.90
23703;DHT22;12030;50.376;8.762;2022-10-26T08:01:18;13.30;99.90
23703;DHT22;12030;50.376;8.762;2022-10-26T08:03:44;13.30;99.90
23703;DHT22;12030;50.376;8.762;2022-10-26T08:06:10;13.30;99.90
23703;DHT22;12030;50.376;8.762;2022-10-26T08:08:36;13.30;99.90
23703;DHT22;12030;50.376;8.762;2022-10-26T08:11:02;13.30;99.90
23703;DHT22;12030;50.376;8.762;2022-10-26T08:13:27;13.40;99.90
23703;DHT22;12030;50.376;8.762;2022-10-26T08:15:57;13.40;99.90
23703;DHT22;12030;50.376;8.762;2022-10-26T08:18:25;13.40;99.90
23703;DHT22;12030;50.376;8.762;2022-10-26T08:20:50;13.40;99.90
23703;DHT22;12030;50.376;8.762;2022-10-26T08:23:16;13.50;99.90
23703;DHT22;12030;50.376;8.762;2022-10-26T08:25:42;13.50;99.90
23703;DHT22;12030;50.376;8.762;2022-10-26T08:28:07;13.50;99.90
23703;DHT22;12030;50.376;8.762;2022-10-26T08:30:33;13.50;99.90
23703;DHT22;12030;50.376;8.762;2022-10-26T08:33:01;13.60;99.90
23703;DHT22;12030;50.376;8.762;2022-10-26T08:35:27;13.60;99.90
23703;DHT22;12030;50.376;8.762;2022-10-26T08:37:53;13.70;99.90
23703;DHT22;12030;50.376;8.762;2022-10-26T08:40:23;13.70;99.90
23703;DHT22;12030;50.376;8.762;2022-10-26T08:42:54;13.70;99.90
23703;DHT22;12030;50.376;8.762;2022-10-26T08:45:44;13.60;99.90
23703;DHT22;12030;50.376;8.762;2022-10-26T08:48:24;13.60;99.90
23703;DHT22;12030;50.376;8.762;2022-10-26T08:50:54;14.10;99.90
23703;DHT22;12030;50.376;8.762;2022-10-26T08:56:08;13.60;99.90
23703;DHT22;12030;50.376;8.762;2022-10-26T08:58:39;13.70;99.90
23703;DHT22;12030;50.376;8.762;2022-10-26T09:01:07;13.80;99.90
23703;DHT22;12030;50.376;8.762;2022-10-26T09:03:33;13.90;99.90
23703;DHT22;12030;50.376;8.762;2022-10-26T09:09:02;14.00;99.90
23703;DHT22;12030;50.376;8.762;2022-10-26T09:11:54;13.90;99.90
23703;DHT22;12030;50.376;8.762;2022-10-26T09:17:13;13.80;99.90
23703;DHT22;12030;50.376;8.762;2022-10-26T09:22:36;13.90;99.90
23703;DHT22;12030;50.376;8.762;2022-10-26T09:27:46;14.00;99.90
23703;DHT22;12030;50.376;8.762;2022-10-26T09:30:16;14.00;99.90
23703;DHT22;12030;50.376;8.762;2022-10-26T09:32:45;14.10;99.90
23703;DHT22;12030;50.376;8.762;2022-10-26T09:35:18;14.10;99.90
23703;DHT22;12030;50.376;8.762;2022-10-26T09:37:55;14.20;99.90
23703;DHT22;12030;50.376;8.762;2022-10-26T09:40:33;14.40;99.90
23703;DHT22;12030;50.376;8.762;2022-10-26T09:45:34;14.60;99.90
23703;DHT22;12030;50.376;8.762;2022-10-26T09:48:06;14.70;99.90
23703;DHT22;12030;50.376;8.762;2022-10-26T09:50:36;14.70;99.90
23703;DHT22;12030;50.376;8.762;2022-10-26T09:53:03;14.70;99.90
23703;DHT22;12030;50.376;8.762;2022-10-26T09:55:30;14.80;99.90
23703;DHT22;12030;50.376;8.762;2022-10-26T09:58:00;14.90;99.90
23703;DHT22;12030;50.376;8.762;2022-10-26T10:00:28;15.00;99.90
23703;DHT22;12030;50.376;8.762;2022-10-26T10:02:55;15.00;99.90
23703;DHT22;12030;50.376;8.762;2022-10-26T10:05:32;15.00;99.90
23703;DHT22;12030;50.376;8.762;2022-10-26T10:08:15;15.10;99.90
23703;DHT22;12030;50.376;8.762;2022-10-26T10:11:06;15.10;99.90
23703;DHT22;12030;50.376;8.762;2022-10-26T10:13:35;15.20;99.90
23703;DHT22;12030;50.376;8.762;2022-10-26T10:16:09;15.30;99.90
23703;DHT22;12030;50.376;8.762;2022-10-26T10:18:36;15.40;99.90
23703;DHT22;12030;50.376;8.762;2022-10-26T10:21:04;15.50;99.90
23703;DHT22;12030;50.376;8.762;2022-10-26T10:23:50;15.60;99.90
23703;DHT22;12030;50.376;8.762;2022-10-26T10:26:19;15.70;99.90
23703;DHT22;12030;50.376;8.762;2022-10-26T10:28:56;15.80;99.90
23703;DHT22;12030;50.376;8.762;2022-10-26T10:31:27;15.80;99.90
23703;DHT22;12030;50.376;8.762;2022-10-26T10:33:53;15.90;99.90
23703;DHT22;12030;50.376;8.762;2022-10-26T10:36:21;15.90;99.90
23703;DHT22;12030;50.376;8.762;2022-10-26T10:38:50;16.00;99.90
23703;DHT22;12030;50.376;8.762;2022-10-26T10:43:52;16.00;99.90
23703;DHT22;12030;50.376;8.762;2022-10-26T10:46:23;16.20;99.90
23703;DHT22;12030;50.376;8.762;2022-10-26T10:49:01;16.20;99.90
23703;DHT22;12030;50.376;8.762;2022-10-26T10:51:30;16.40;99.90
23703;DHT22;12030;50.376;8.762;2022-10-26T10:53:59;16.40;99.90
23703;DHT22;12030;50.376;8.762;2022-10-26T10:56:49;16.50;99.90
23703;DHT22;12030;50.376;8.762;2022-10-26T11:08:41;16.60;99.90
23703;DHT22;12030;50.376;8.762;2022-10-26T11:13:52;16.70;99.90
23703;DHT22;12030;50.376;8.762;2022-10-26T11:16:28;16.70;99.90
23703;DHT22;12030;50.376;8.762;2022-10-26T11:19:19;16.80;99.90
23703;DHT22;12030;50.376;8.762;2022-10-26T11:21:50;16.90;99.90
23703;DHT22;12030;50.376;8.762;2022-10-26T11:32:27;17.60;99.90
23703;DHT22;12030;50.376;8.762;2022-10-26T11:35:17;17.70;99.90
23703;DHT22;12030;50.376;8.762;2022-10-26T11:38:07;17.60;99.90
23703;DHT22;12030;50.376;8.762;2022-10-26T11:48:42;17.00;99.90
23703;DHT22;12030;50.376;8.762;2022-10-26T11:54:15;17.00;99.90
23703;DHT22;12030;50.376;8.762;2022-10-26T11:56:46;17.00;99.90
23703;DHT22;12030;50.376;8.762;2022-10-26T11:59:22;17.00;99.90
23703;DHT22;12030;50.376;8.762;2022-10-26T12:01:54;17.00;99.90
23703;DHT22;12030;50.376;8.762;2022-10-26T12:04:24;17.00;99.90
23703;DHT22;12030;50.376;8.762;2022-10-26T12:06:53;17.00;99.90
23703;DHT22;12030;50.376;8.762;2022-10-26T12:09:23;17.00;99.90
23703;DHT22;12030;50.376;8.762;2022-10-26T12:11:57;17.00;99.90
23703;DHT22;12030;50.376;8.762;2022-10-26T12:14:34;17.00;99.90
23703;DHT22;12030;50.376;8.762;2022-10-26T12:22:10;17.10;99.90
23703;DHT22;12030;50.376;8.762;2022-10-26T12:24:43;17.30;99.90
23703;DHT22;12030;50.376;8.762;2022-10-26T12:27:47;17.40;99.90
23703;DHT22;12030;50.376;8.762;2022-10-26T12:37:57;17.80;99.90
23703;DHT22;12030;50.376;8.762;2022-10-26T12:46:35;18.00;99.90
23703;DHT22;12030;50.376;8.762;2022-10-26T12:48:46;18.00;99.90
23703;DHT22;12030;50.376;8.762;2022-10-26T12:56:41;18.00;99.90
23703;DHT22;12030;50.376;8.762;2022-10-26T13:01:50;18.00;99.90
23703;DHT22;12030;50.376;8.762;2022-10-26T13:07:25;18.10;99.90
23703;DHT22;12030;50.376;8.762;2022-10-26T13:10:04;18.10;99.90
23703;DHT22;12030;50.376;8.762;2022-10-26T13:12:37;18.20;99.90
23703;DHT22;12030;50.376;8.762;2022-10-26T13:15:26;18.30;99.90
23703;DHT22;12030;50.376;8.762;2022-10-26T13:18:13;18.30;99.90
23703;DHT22;12030;50.376;8.762;2022-10-26T13:21:05;18.20;99.90
23703;DHT22;12030;50.376;8.762;2022-10-26T13:23:34;18.20;99.90
23703;DHT22;12030;50.376;8.762;2022-10-26T13:26:08;18.10;99.90
23703;DHT22;12030;50.376;8.762;2022-10-26T13:33:51;18.20;99.90
23703;DHT22;12030;50.376;8.762;2022-10-26T13:36:40;18.20;99.90
23703;DHT22;12030;50.376;8.762;2022-10-26T13:41:42;18.40;99.90
23703;DHT22;12030;50.376;8.762;2022-10-26T13:46:58;18.60;99.90
23703;DHT22;12030;50.376;8.762;2022-10-26T13:49:40;18.70;99.90
23703;DHT22;12030;50.376;8.762;2022-10-26T13:52:14;18.70;99.90
23703;DHT22;12030;50.376;8.762;2022-10-26T13:54:47;18.70;99.90
23703;DHT22;12030;50.376;8.762;2022-10-26T13:57:19;18.80;99.90
23703;DHT22;12030;50.376;8.762;2022-10-26T13:59:47;18.90;99.90
23703;DHT22;12030;50.376;8.762;2022-10-26T14:02:24;18.80;99.90
23703;DHT22;12030;50.376;8.762;2022-10-26T14:04:59;18.90;99.90
23703;DHT22;12030;50.376;8.762;2022-10-26T14:07:50;18.90;99.90
23703;DHT22;12030;50.376;8.762;2022-10-26T14:12:49;18.80;99.90
23703;DHT22;12030;50.376;8.762;2022-10-26T14:15:15;18.80;99.90
23703;DHT22;12030;50.376;8.762;2022-10-26T14:17:49;18.70;99.90
23703;DHT22;12030;50.376;8.762;2022-10-26T14:20:20;18.70;99.90
23703;DHT22;12030;50.376;8.762;2022-10-26T14:22:46;18.60;99.90
23703;DHT22;12030;50.376;8.762;2022-10-26T14:25:21;18.60;99.90
23703;DHT22;12030;50.376;8.762;2022-10-26T14:27:47;18.60;99.90
23703;DHT22;12030;50.376;8.762;2022-10-26T14:30:27;18.60;99.90
23703;DHT22;12030;50.376;8.762;2022-10-26T14:32:53;18.60;99.90
23703;DHT22;12030;50.376;8.762;2022-10-26T14:35:31;18.60;99.90
23703;DHT22;12030;50.376;8.762;2022-10-26T14:38:09;18.60;99.90
23703;DHT22;12030;50.376;8.762;2022-10-26T14:40:37;18.70;99.90
23703;DHT22;12030;50.376;8.762;2022-10-26T14:43:04;18.60;99.90
23703;DHT22;12030;50.376;8.762;2022-10-26T14:45:32;18.60;99.90
23703;DHT22;12030;50.376;8.762;2022-10-26T14:48:00;18.60;99.90
23703;DHT22;12030;50.376;8.762;2022-10-26T14:50:27;18.50;99.90
23703;DHT22;12030;50.376;8.762;2022-10-26T14:53:01;18.50;99.90
23703;DHT22;12030;50.376;8.762;2022-10-26T14:55:29;18.40;99.90
23703;DHT22;12030;50.376;8.762;2022-10-26T14:58:06;18.40;99.90
23703;DHT22;12030;50.376;8.762;2022-10-26T15:00:33;18.30;99.90
23703;DHT22;12030;50.376;8.762;2022-10-26T15:02:59;18.30;99.90
23703;DHT22;12030;50.376;8.762;2022-10-26T15:05:32;18.30;99.90
23703;DHT22;12030;50.376;8.762;2022-10-26T15:07:59;18.20;99.90
23703;DHT22;12030;50.376;8.762;2022-10-26T15:13:19;18.10;99.90
23703;DHT22;12030;50.376;8.762;2022-10-26T15:15:46;18.00;99.90
23703;DHT22;12030;50.376;8.762;2022-10-26T15:18:25;18.00;99.90
23703;DHT22;12030;50.376;8.762;2022-10-26T15:20:52;18.00;99.90
23703;DHT22;12030;50.376;8.762;2022-10-26T15:23:19;17.90;99.90
23703;DHT22;12030;50.376;8.762;2022-10-26T15:25:54;17.90;99.90
23703;DHT22;12030;50.376;8.762;2022-10-26T15:36:20;17.70;99.90
23703;DHT22;12030;50.376;8.762;2022-10-26T15:38:46;17.60;99.90
23703;DHT22;12030;50.376;8.762;2022-10-26T15:43:40;17.50;99.90
23703;DHT22;12030;50.376;8.762;2022-10-26T15:46:05;17.40;99.90
23703;DHT22;12030;50.376;8.762;2022-10-26T15:48:31;17.40;99.90
23703;DHT22;12030;50.376;8.762;2022-10-26T15:50:58;17.30;99.90
23703;DHT22;12030;50.376;8.762;2022-10-26T15:53:26;17.20;99.90
23703;DHT22;12030;50.376;8.762;2022-10-26T15:55:56;17.20;99.90
23703;DHT22;12030;50.376;8.762;2022-10-26T15:58:23;17.10;99.90
23703;DHT22;12030;50.376;8.762;2022-10-26T16:00:48;17.00;99.90
23703;DHT22;12030;50.376;8.762;2022-10-26T16:03:19;16.90;99.90
23703;DHT22;12030;50.376;8.762;2022-10-26T16:05:46;16.90;99.90
23703;DHT22;12030;50.376;8.762;2022-10-26T16:08:14;16.80;99.90
23703;DHT22;12030;50.376;8.762;2022-10-26T16:10:40;16.70;99.90
23703;DHT22;12030;50.376;8.762;2022-10-26T16:13:11;16.60;99.90
23703;DHT22;12030;50.376;8.762;2022-10-26T16:15:37;16.50;99.90
23703;DHT22;12030;50.376;8.762;2022-10-26T16:18:02;16.50;99.90
23703;DHT22;12030;50.376;8.762;2022-10-26T16:20:28;16.40;99.90
23703;DHT22;12030;50.376;8.762;2022-10-26T16:22:54;16.40;99.90
23703;DHT22;12030;50.376;8.762;2022-10-26T16:25:22;16.30;99.90
23703;DHT22;12030;50.376;8.762;2022-10-26T16:27:49;16.20;99.90
23703;DHT22;12030;50.376;8.762;2022-10-26T16:30:15;16.10;99.90
23703;DHT22;12030;50.376;8.762;2022-10-26T16:32:41;16.00;99.90
23703;DHT22;12030;50.376;8.762;2022-10-26T16:35:08;15.80;99.90
23703;DHT22;12030;50.376;8.762;2022-10-26T16:37:34;15.80;99.90
23703;DHT22;12030;50.376;8.762;2022-10-26T16:39:59;15.80;99.90
23703;DHT22;12030;50.376;8.762;2022-10-26T16:42:25;15.70;99.90
23703;DHT22;12030;50.376;8.762;2022-10-26T16:44:52;15.70;99.90
23703;DHT22;12030;50.376;8.762;2022-10-26T16:47:18;15.60;99.90
23703;DHT22;12030;50.376;8.762;2022-10-26T16:49:44;15.60;99.90
23703;DHT22;12030;50.376;8.762;2022-10-26T16:52:10;15.50;99.90
23703;DHT22;12030;50.376;8.762;2022-10-26T16:54:36;15.50;99.90
23703;DHT22;12030;50.376;8.762;2022-10-26T16:57:02;15.50;99.90
23703;DHT22;12030;50.376;8.762;2022-10-26T16:59:28;15.50;99.90
23703;DHT22;12030;50.376;8.762;2022-10-26T17:01:54;15.40;99.90
23703;DHT22;12030;50.376;8.762;2022-10-26T17:04:19;15.30;99.90
23703;DHT22;12030;50.376;8.762;2022-10-26T17:06:45;15.30;99.90
23703;DHT22;12030;50.376;8.762;2022-10-26T17:09:10;15.20;99.90
23703;DHT22;12030;50.376;8.762;2022-10-26T17:11:36;15.10;99.90
23703;DHT22;12030;50.376;8.762;2022-10-26T17:14:01;15.00;99.90
23703;DHT22;12030;50.376;8.762;2022-10-26T17:16:27;14.80;99.90
23703;DHT22;12030;50.376;8.762;2022-10-26T17:18:53;14.70;99.90
23703;DHT22;12030;50.376;8.762;2022-10-26T17:21:26;14.60;99.90
23703;DHT22;12030;50.376;8.762;2022-10-26T17:23:51;14.50;99.90
23703;DHT22;12030;50.376;8.762;2022-10-26T17:26:17;14.40;99.90
23703;DHT22;12030;50.376;8.762;2022-10-26T17:28:42;14.30;99.90
23703;DHT22;12030;50.376;8.762;2022-10-26T17:31:12;14.20;99.90
23703;DHT22;12030;50.376;8.762;2022-10-26T17:33:40;14.10;99.90
23703;DHT22;12030;50.376;8.762;2022-10-26T17:36:08;14.10;99.90
23703;DHT22;12030;50.376;8.762;2022-10-26T17:38:39;14.00;99.90
23703;DHT22;12030;50.376;8.762;2022-10-26T17:41:07;14.00;99.90
23703;DHT22;12030;50.376;8.762;2022-10-26T17:43:35;13.90;99.90
23703;DHT22;12030;50.376;8.762;2022-10-26T17:46:03;13.80;99.90
23703;DHT22;12030;50.376;8.762;2022-10-26T17:48:30;13.80;99.90
23703;DHT22;12030;50.376;8.762;2022-10-26T17:51:04;13.70;99.90
23703;DHT22;12030;50.376;8.762;2022-10-26T17:53:30;13.60;99.90
23703;DHT22;12030;50.376;8.762;2022-10-26T17:56:01;13.50;99.90
23703;DHT22;12030;50.376;8.762;2022-10-26T17:58:27;13.40;99.90
23703;DHT22;12030;50.376;8.762;2022-10-26T18:00:53;13.40;99.90
23703;DHT22;12030;50.376;8.762;2022-10-26T18:03:19;13.30;99.90
23703;DHT22;12030;50.376;8.762;2022-10-26T18:05:49;13.20;99.90